createdAt,value
2019-04-04T00:01:37.293Z,2.97
2019-04-04T00:04:05.360Z,1.77
2019-04-04T00:06:33.462Z,2.33
2019-04-04T00:09:01.996Z,1.63
2019-04-04T00:11:30.710Z,1.50
2019-04-04T00:13:58.786Z,1.20
2019-04-04T00:16:26.881Z,3.30
2019-04-04T00:18:54.950Z,1.37
2019-04-04T00:21:23.043Z,2.17
2019-04-04T00:23:51.124Z,4.80
2019-04-04T00:26:19.218Z,1.50
2019-04-04T00:28:47.306Z,1.57
2019-04-04T00:31:18.705Z,1.90
2019-04-04T00:33:45.178Z,1.87
2019-04-04T00:36:13.261Z,2.03
2019-04-04T00:38:41.342Z,2.40
2019-04-04T00:41:11.024Z,2.27
2019-04-04T00:43:39.224Z,2.40
2019-04-04T00:46:07.318Z,2.10
2019-04-04T00:48:35.394Z,2.53
2019-04-04T00:51:03.474Z,2.77
2019-04-04T00:53:31.557Z,3.83
2019-04-04T00:55:59.643Z,2.20
2019-04-04T00:58:27.715Z,2.50
2019-04-04T01:00:55.801Z,2.17
2019-04-04T01:03:23.897Z,2.30
2019-04-04T01:05:51.961Z,2.43
2019-04-04T01:08:20.054Z,2.43
2019-04-04T01:10:49.825Z,2.23
2019-04-04T01:13:17.914Z,2.90
2019-04-04T01:15:46.011Z,2.83
2019-04-04T01:18:14.087Z,3.47
2019-04-04T01:20:42.176Z,3.43
2019-04-04T01:23:10.268Z,3.33
2019-04-04T01:25:38.387Z,3.43
2019-04-04T01:28:08.179Z,4.07
2019-04-04T01:30:36.306Z,4.17
2019-04-04T01:33:04.399Z,4.00
2019-04-04T01:35:32.508Z,4.60
2019-04-04T01:38:00.619Z,4.00
2019-04-04T01:40:28.703Z,4.57
2019-04-04T01:42:56.791Z,4.53
2019-04-04T01:45:24.879Z,4.83
2019-04-04T01:47:52.986Z,5.17
2019-04-04T01:50:22.807Z,5.40
2019-04-04T01:52:50.889Z,5.30
2019-04-04T01:55:18.964Z,5.50
2019-04-04T01:57:47.049Z,5.60
2019-04-04T02:00:15.876Z,6.30
2019-04-04T02:02:44.054Z,6.00
2019-04-04T02:05:12.132Z,6.37
2019-04-04T02:07:40.203Z,6.03
2019-04-04T02:10:08.280Z,6.63
2019-04-04T02:12:38.580Z,6.53
2019-04-04T02:15:08.886Z,6.70
2019-04-04T02:17:36.949Z,6.50
2019-04-04T02:20:05.993Z,7.03
2019-04-04T02:22:34.082Z,7.23
2019-04-04T02:25:03.080Z,7.63
2019-04-04T02:27:31.858Z,7.40
2019-04-04T02:29:59.950Z,7.53
2019-04-04T02:32:29.115Z,7.47
2019-04-04T02:34:57.192Z,7.90
2019-04-04T02:37:25.374Z,8.53
2019-04-04T02:39:53.452Z,8.97
2019-04-04T02:42:22.526Z,8.17
2019-04-04T02:44:50.699Z,9.37
2019-04-04T02:47:18.808Z,9.73
2019-04-04T02:49:46.878Z,9.97
2019-04-04T02:52:15.041Z,9.03
2019-04-04T02:54:43.139Z,8.80
2019-04-04T02:57:11.222Z,10.13
2019-04-04T02:59:39.301Z,10.17
2019-04-04T03:02:07.395Z,10.37
2019-04-04T03:04:35.465Z,10.70
2019-04-04T03:07:03.543Z,10.70
2019-04-04T03:09:31.624Z,11.37
2019-04-04T03:11:59.705Z,13.13
2019-04-04T03:14:27.792Z,13.83
2019-04-04T03:16:56.915Z,15.23
2019-04-04T03:19:25.675Z,13.70
2019-04-04T03:21:55.901Z,15.47
2019-04-04T03:24:23.585Z,13.27
2019-04-04T03:26:52.662Z,13.80
2019-04-04T03:29:21.879Z,13.50
2019-04-04T03:31:49.971Z,11.97
2019-04-04T03:34:18.050Z,12.23
2019-04-04T03:36:46.126Z,11.77
2019-04-04T03:39:19.081Z,10.87
2019-04-04T03:41:43.997Z,9.30
2019-04-04T03:44:12.073Z,9.40
2019-04-04T03:46:40.144Z,7.50
2019-04-04T03:49:08.230Z,8.70
2019-04-04T03:51:38.059Z,7.70
2019-04-04T03:54:07.816Z,8.80
2019-04-04T03:56:39.283Z,9.00
2019-04-04T03:59:05.712Z,9.80
2019-04-04T04:01:33.801Z,11.03
2019-04-04T04:04:01.876Z,12.20
2019-04-04T04:06:29.981Z,12.90
2019-04-04T04:08:58.054Z,12.27
2019-04-04T04:11:26.153Z,12.47
2019-04-04T04:13:54.298Z,11.80
2019-04-04T04:16:22.419Z,11.73
2019-04-04T04:18:53.910Z,11.27
2019-04-04T04:21:20.315Z,11.70
2019-04-04T04:23:50.016Z,12.70
2019-04-04T04:26:18.189Z,12.10
2019-04-04T04:28:46.283Z,10.93
2019-04-04T04:31:15.438Z,13.20
2019-04-04T04:33:43.834Z,13.70
2019-04-04T04:36:15.300Z,14.07
2019-04-04T04:38:41.732Z,15.83
2019-04-04T04:41:09.817Z,17.03
2019-04-04T04:43:37.900Z,16.93
2019-04-04T04:46:06.029Z,16.00
2019-04-04T04:48:34.098Z,17.50
2019-04-04T04:51:02.186Z,17.50
2019-04-04T04:53:30.281Z,17.93
2019-04-04T04:56:00.608Z,20.67
2019-04-04T04:58:28.187Z,19.93
2019-04-04T05:00:56.301Z,18.47
2019-04-04T05:03:24.913Z,20.13
2019-04-04T05:05:52.974Z,18.93
2019-04-04T05:08:21.069Z,19.80
2019-04-04T05:10:49.144Z,20.23
2019-04-04T05:13:17.237Z,20.93
2019-04-04T05:15:45.317Z,22.23
2019-04-04T05:18:14.158Z,21.13
2019-04-04T05:20:43.270Z,21.70
2019-04-04T05:23:11.399Z,22.37
2019-04-04T05:25:51.757Z,23.40
2019-04-04T05:28:10.826Z,21.37
2019-04-04T05:30:39.499Z,21.73
2019-04-04T05:33:07.573Z,20.53
2019-04-04T05:35:37.697Z,19.80
2019-04-04T05:38:07.700Z,17.80
2019-04-04T05:40:35.277Z,19.53
2019-04-04T05:43:04.200Z,19.77
2019-04-04T05:45:32.996Z,20.43
2019-04-04T05:48:01.078Z,21.07
2019-04-04T05:50:29.185Z,22.47
2019-04-04T05:52:57.249Z,20.47
2019-04-04T05:55:25.346Z,21.90
2019-04-04T05:57:53.418Z,22.63
2019-04-04T06:00:21.650Z,22.83
2019-04-04T06:02:49.720Z,24.57
2019-04-04T06:05:17.817Z,25.80
2019-04-04T06:07:45.958Z,27.43
2019-04-04T06:10:14.060Z,25.23
2019-04-04T06:12:42.162Z,28.23
2019-04-04T06:15:10.316Z,67.07
2019-04-04T06:17:39.134Z,29.37
2019-04-04T06:20:08.140Z,26.90
2019-04-04T06:22:36.213Z,27.43
2019-04-04T06:25:05.592Z,27.07
2019-04-04T06:27:33.683Z,26.60
2019-04-04T06:30:01.773Z,25.97
2019-04-04T06:32:30.984Z,26.73
2019-04-04T06:34:59.721Z,25.27
2019-04-04T06:37:27.780Z,25.77
2019-04-04T06:39:58.439Z,25.07
2019-04-04T06:42:25.690Z,26.10
2019-04-04T06:44:54.318Z,26.00
2019-04-04T06:47:23.114Z,24.10
2019-04-04T06:49:52.370Z,22.80
2019-04-04T06:52:23.295Z,24.87
2019-04-04T06:54:50.269Z,23.67
2019-04-04T06:57:18.336Z,21.23
2019-04-04T06:59:46.430Z,22.63
2019-04-04T07:02:14.529Z,23.90
2019-04-04T07:04:42.598Z,27.47
2019-04-04T07:07:12.558Z,25.33
2019-04-04T07:09:40.735Z,25.93
2019-04-04T07:12:20.326Z,26.17
2019-04-04T07:14:45.688Z,26.53
2019-04-04T07:17:09.364Z,28.33
2019-04-04T07:19:37.597Z,27.80
2019-04-04T07:22:05.681Z,27.33
2019-04-04T07:24:33.756Z,28.00
2019-04-04T07:27:01.897Z,28.13
2019-04-04T07:31:57.379Z,24.67
2019-04-04T07:34:25.466Z,24.47
2019-04-04T07:36:53.541Z,22.57
2019-04-04T07:39:21.617Z,24.20
2019-04-04T07:41:49.781Z,22.20
2019-04-04T07:44:17.864Z,23.87
2019-04-04T07:46:46.118Z,23.23
2019-04-04T07:49:14.293Z,23.90
2019-04-04T07:51:42.391Z,24.73
2019-04-04T07:54:10.472Z,25.57
2019-04-04T07:56:38.603Z,27.10
2019-04-04T07:59:06.731Z,26.37
2019-04-04T08:01:34.857Z,28.53
2019-04-04T08:04:02.934Z,30.57
2019-04-04T08:06:31.033Z,29.33
2019-04-04T08:08:59.106Z,27.90
2019-04-04T08:11:27.196Z,28.90
2019-04-04T08:13:55.341Z,27.97
2019-04-04T08:16:23.438Z,28.70
2019-04-04T08:18:51.520Z,28.67
2019-04-04T08:21:19.621Z,27.23
2019-04-04T08:23:47.705Z,27.07
2019-04-04T08:26:15.786Z,27.07
2019-04-04T08:28:43.879Z,24.53
2019-04-04T08:31:11.968Z,25.30
2019-04-04T08:33:40.050Z,24.27
2019-04-04T08:36:08.130Z,24.60
2019-04-04T08:38:36.224Z,24.33
2019-04-04T08:41:04.364Z,24.80
2019-04-04T08:43:32.517Z,23.27
2019-04-04T08:46:00.615Z,24.20
2019-04-04T08:48:28.689Z,23.37
2019-04-04T09:00:46.219Z,20.40
2019-04-04T09:35:10.262Z,23.80
2019-04-04T11:21:33.400Z,14.50
2019-04-04T11:50:48.566Z,13.50
2019-04-04T11:53:41.769Z,12.40
2019-04-04T12:14:36.326Z,8.17
2019-04-04T12:35:34.093Z,7.33
2019-04-04T12:38:27.474Z,6.73
2019-04-04T12:47:29.251Z,5.27
2019-04-04T13:08:10.741Z,5.17
2019-04-04T13:14:01.715Z,4.13
2019-04-04T13:20:06.309Z,3.70
2019-04-04T13:41:00.275Z,3.80
2019-04-04T14:42:12.599Z,1.40
2019-04-04T14:44:40.696Z,1.80
2019-04-04T14:47:08.787Z,1.80
2019-04-04T14:49:37.100Z,1.50
2019-04-04T14:52:05.182Z,1.40
2019-04-04T14:54:33.266Z,1.23
2019-04-04T14:57:01.348Z,1.70
2019-04-04T14:59:29.443Z,1.47
2019-04-04T15:01:57.536Z,1.67
2019-04-04T15:04:25.625Z,1.77
2019-04-04T15:06:53.937Z,2.10
2019-04-04T15:09:22.029Z,2.10
2019-04-04T15:11:50.114Z,2.10
2019-04-04T15:14:18.199Z,2.03
2019-04-04T15:16:46.281Z,2.33
2019-04-04T15:19:14.366Z,2.33
2019-04-04T15:21:42.449Z,2.17
2019-04-04T15:24:10.527Z,2.00
2019-04-04T15:31:33.356Z,2.07
2019-04-04T15:34:01.449Z,2.27
2019-04-04T15:36:29.547Z,2.30
2019-04-04T15:38:57.643Z,2.20
2019-04-04T15:41:36.175Z,2.30
2019-04-04T15:43:55.528Z,2.43
2019-04-04T15:46:23.600Z,2.67
2019-04-04T15:48:51.685Z,2.63
2019-04-04T15:51:19.772Z,2.50
2019-04-04T15:53:47.859Z,2.50
2019-04-04T15:56:15.933Z,2.63
2019-04-04T15:58:44.020Z,2.90
2019-04-04T16:01:12.101Z,2.83
2019-04-04T16:03:40.212Z,2.80
2019-04-04T16:06:08.311Z,2.50
2019-04-04T16:08:36.391Z,2.83
2019-04-04T16:11:05.577Z,2.30
2019-04-04T16:13:33.672Z,2.40
2019-04-04T16:16:01.739Z,2.37
2019-04-04T16:18:29.831Z,2.13
2019-04-04T16:20:57.917Z,2.33
2019-04-04T16:23:26.006Z,1.83
2019-04-04T16:25:54.102Z,2.13
2019-04-04T16:28:22.200Z,1.60
2019-04-04T16:30:50.279Z,1.80
2019-04-04T16:33:18.353Z,1.53
2019-04-04T16:35:46.429Z,1.83
2019-04-04T16:38:14.513Z,1.80
2019-04-04T16:40:42.585Z,1.87
2019-04-04T16:43:10.664Z,1.60
2019-04-04T16:45:38.750Z,1.50
2019-04-04T16:48:06.835Z,1.10
2019-04-04T16:50:34.977Z,1.10
2019-04-04T16:53:03.061Z,1.13
2019-04-04T16:55:31.146Z,1.30
2019-04-04T16:57:59.240Z,1.50
2019-04-04T17:00:27.500Z,1.70
2019-04-04T17:02:55.577Z,1.40
2019-04-04T17:05:23.665Z,1.47
2019-04-04T17:07:51.765Z,0.97
2019-04-04T17:10:19.905Z,1.03
2019-04-04T17:12:47.990Z,1.07
2019-04-04T17:15:16.069Z,1.17
2019-04-04T17:17:44.148Z,1.50
2019-04-04T17:20:12.401Z,0.90
2019-04-04T17:22:40.488Z,1.07
2019-04-04T17:25:08.633Z,1.90
2019-04-04T17:27:37.313Z,1.10
2019-04-04T17:30:06.139Z,0.90
2019-04-04T17:32:34.447Z,1.00
2019-04-04T17:35:02.881Z,0.97
2019-04-04T17:37:30.971Z,0.87
2019-04-04T17:39:59.037Z,0.90
2019-04-04T17:42:31.308Z,1.03
2019-04-04T17:44:57.078Z,1.10
2019-04-04T17:47:25.175Z,0.97
2019-04-04T17:49:53.650Z,1.17
2019-04-04T17:52:21.740Z,1.37
2019-04-04T17:54:49.972Z,1.90
2019-04-04T17:57:18.065Z,1.30
2019-04-04T17:59:46.156Z,1.80
2019-04-04T18:02:14.235Z,1.50
2019-04-04T18:04:48.339Z,1.80
2019-04-04T18:07:12.134Z,1.50
2019-04-04T18:09:40.213Z,2.33
2019-04-04T18:12:08.289Z,2.20
2019-04-04T18:14:36.377Z,2.43
2019-04-04T18:17:04.458Z,2.30
2019-04-04T18:19:32.541Z,2.57
2019-04-04T18:22:00.640Z,2.80
2019-04-04T18:24:28.718Z,3.10
2019-04-04T18:26:56.806Z,3.20
2019-04-04T18:29:24.904Z,3.33
2019-04-04T18:31:53.029Z,3.53
2019-04-04T18:34:21.124Z,3.57
2019-04-04T18:36:49.695Z,3.63
2019-04-04T18:39:17.908Z,3.67
2019-04-04T18:41:45.988Z,4.27
2019-04-04T18:44:14.074Z,4.07
2019-04-04T18:46:42.182Z,4.13
2019-04-04T18:49:10.260Z,4.80
2019-04-04T18:51:38.347Z,4.23
2019-04-04T18:54:06.506Z,4.33
2019-04-04T18:56:34.609Z,4.57
2019-04-04T18:59:02.694Z,4.50
2019-04-04T19:01:30.793Z,4.07
2019-04-04T19:03:58.870Z,4.53
2019-04-04T19:06:27.030Z,4.10
2019-04-04T19:08:55.124Z,4.13
2019-04-04T19:11:23.199Z,4.10
2019-04-04T19:13:51.272Z,4.20
2019-04-04T19:16:19.363Z,4.90
2019-04-04T19:18:47.452Z,4.50
2019-04-04T19:21:15.549Z,4.53
2019-04-04T19:23:49.172Z,4.90
2019-04-04T19:26:13.442Z,4.87
2019-04-04T19:28:41.590Z,5.33
2019-04-04T19:31:09.752Z,4.97
2019-04-04T19:33:37.853Z,4.67
2019-04-04T19:36:05.955Z,5.00
2019-04-04T19:38:34.031Z,4.83
2019-04-04T19:41:02.137Z,5.00
2019-04-04T19:43:30.229Z,5.00
2019-04-04T19:45:58.328Z,5.30
2019-04-04T19:48:26.415Z,4.73
2019-04-04T19:50:54.575Z,5.10
2019-04-04T19:53:22.645Z,5.70
2019-04-04T19:55:50.733Z,5.17
2019-04-04T19:58:18.815Z,5.90
2019-04-04T20:00:46.962Z,5.27
2019-04-04T20:03:15.069Z,5.67
2019-04-04T20:05:44.658Z,5.93
2019-04-04T20:08:12.925Z,5.43
2019-04-04T20:10:41.006Z,6.43
2019-04-04T20:13:09.105Z,7.00
2019-04-04T20:15:37.181Z,6.33
2019-04-04T20:18:05.268Z,6.47
2019-04-04T20:20:33.364Z,6.93
2019-04-04T20:23:01.524Z,7.00
2019-04-04T20:25:29.633Z,7.10
2019-04-04T20:27:57.714Z,7.07
2019-04-04T20:30:35.943Z,7.73
2019-04-04T20:33:04.185Z,7.87
2019-04-04T20:35:32.283Z,8.00
2019-04-04T20:38:00.385Z,8.00
2019-04-04T20:40:28.478Z,9.37
2019-04-04T20:42:56.630Z,8.77
2019-04-04T20:45:24.726Z,8.57
2019-04-04T20:47:52.803Z,9.80
2019-04-04T20:50:20.889Z,8.70
2019-04-04T20:52:48.971Z,9.30
2019-04-04T20:55:17.054Z,8.93
2019-04-04T20:57:45.144Z,9.87
2019-04-04T21:00:13.230Z,9.83
2019-04-04T21:02:41.313Z,9.55
2019-04-04T21:05:09.403Z,10.50
2019-04-04T21:07:37.490Z,9.50
2019-04-04T21:10:08.659Z,9.60
2019-04-04T21:12:36.733Z,9.70
2019-04-04T21:15:05.782Z,9.83
2019-04-04T21:17:33.853Z,9.80
2019-04-04T21:20:01.930Z,10.50
2019-04-04T21:22:30.018Z,10.37
2019-04-04T21:24:58.102Z,9.37
2019-04-04T21:27:26.201Z,10.17
2019-04-04T21:29:54.511Z,10.40
2019-04-04T21:32:22.634Z,10.20
2019-04-04T21:34:50.722Z,9.77
2019-04-04T21:37:18.808Z,9.93
2019-04-04T21:39:46.889Z,9.57
2019-04-04T21:42:14.969Z,9.77
2019-04-04T21:44:43.054Z,9.47
2019-04-04T21:47:11.161Z,9.50
2019-04-04T21:49:39.233Z,9.07
2019-04-04T21:52:07.305Z,8.77
2019-04-04T21:54:35.372Z,9.80
2019-04-04T21:57:03.479Z,9.07
2019-04-04T21:59:31.537Z,9.33
2019-04-04T22:01:59.617Z,9.20
2019-04-04T22:04:27.689Z,9.33
2019-04-04T22:06:55.777Z,9.13
2019-04-04T22:09:23.862Z,9.43
2019-04-04T22:11:51.933Z,9.70
2019-04-04T22:14:22.040Z,9.70
2019-04-04T22:16:49.852Z,10.80
2019-04-04T22:19:17.934Z,9.90
2019-04-04T22:21:46.035Z,9.30
2019-04-04T22:24:14.094Z,9.60
2019-04-04T22:26:42.176Z,10.90
2019-04-04T22:29:10.274Z,10.53
2019-04-04T22:31:38.356Z,10.23
2019-04-04T22:34:06.443Z,10.03
2019-04-04T22:36:34.523Z,10.50
2019-04-04T22:39:02.695Z,11.10
2019-04-04T22:41:32.920Z,11.33
2019-04-04T22:44:03.579Z,10.87
2019-04-04T22:46:30.499Z,10.73
2019-04-04T22:48:58.588Z,11.03
2019-04-04T22:51:26.664Z,10.90
2019-04-04T22:53:54.769Z,11.67
2019-04-04T22:56:22.865Z,10.77
2019-04-04T22:58:51.018Z,11.70
2019-04-04T23:01:19.096Z,12.07
2019-04-04T23:03:47.194Z,11.87
2019-04-04T23:06:15.265Z,11.27
2019-04-04T23:08:43.378Z,11.37
2019-04-04T23:11:11.474Z,11.30
2019-04-04T23:13:39.580Z,11.80
2019-04-04T23:16:07.665Z,12.50
2019-04-04T23:18:35.766Z,12.00
2019-04-04T23:21:03.869Z,11.77
2019-04-04T23:23:31.953Z,12.50
2019-04-04T23:26:00.049Z,12.37
2019-04-04T23:28:28.167Z,12.47
2019-04-04T23:30:56.250Z,12.60
